Catàleg de serveis del Meteocat
Campanya meteocatpedra

Dades de l'estació automàtica Gurb

?
?
Resum diari 21:30 TU
Dades diàries de l'estació meteorològica
Temperatura mitjana 5.1 °C
Temperatura màxima 12.5 °C 14:29 TU
Temperatura mínima -0.3 °C 3:58 TU
Humitat relativa mitjana 88%
Precipitació acumulada 0.0 mm
Ratxa màxima del vent (2 m) 15.8 km/h - 227º 13:42 TU
Irradiació solar global 6.3 MJ/m2

El tram horari està expressat en Temps Universal (TU). Cal sumar una hora en horari d'hivern i dues en horari d'estiu per passar a l'hora oficial.

Gurb

Metadades estació meteorol´gica
Municipi Gurb
Comarca Osona
Altitud 509 m
Data alta 31.03.1999
Estat actual Operativa
Dades de període
Període
TU
TM
°C
TX
°C
TN
°C
HRM
%
PPT
mm
VVM (2 m)
km/h
DVM (2 m)
graus
VVX (2 m)
km/h
RS
W/m2
00:00 - 00:30 2.7 3.5 2.2 93 0.0 4.0 339 9.0 0
00:30 - 01:00 2.6 3.0 1.8 93 0.0 3.2 322 10.1 0
01:00 - 01:30 1.6 1.8 1.3 96 0.0 0.7 250 4.0 0
01:30 - 02:00 1.5 1.7 1.3 98 0.0 1.1 231 3.6 0
02:00 - 02:30 1.3 1.5 0.8 98 0.0 2.2 344 6.1 0
02:30 - 03:00 1.0 1.2 0.6 98 0.0 1.8 352 4.7 0
03:00 - 03:30 0.9 1.2 0.7 98 0.0 1.8 338 5.8 0
03:30 - 04:00 0.4 0.7 -0.3 99 0.0 0.4 246 2.9 0
04:00 - 04:30 0.4 0.7 -0.2 99 0.0 0.4 243 3.6 0
04:30 - 05:00 0.3 0.5 0.2 100 0.0 0.0 217 0.7 0
05:00 - 05:30 0.4 0.5 -0.1 100 0.0 0.7 334 3.6 0
05:30 - 06:00 0.4 0.6 0.2 100 0.0 1.4 345 4.3 0
06:00 - 06:30 0.6 0.6 0.4 99 0.0 1.1 330 4.7 0
06:30 - 07:00 0.4 0.6 0.1 99 0.0 0.7 297 3.2 6
07:00 - 07:30 0.8 1.1 0.5 99 0.0 0.7 228 4.0 28
07:30 - 08:00 1.4 1.8 1.1 99 0.0 2.2 220 4.0 48
08:00 - 08:30 2.2 2.5 1.8 96 0.0 1.1 214 4.0 69
08:30 - 09:00 2.8 2.9 2.5 93 0.0 1.1 58 4.3 88
09:00 - 09:30 3.2 3.5 2.9 90 0.0 0.7 149 4.0 109
09:30 - 10:00 3.9 4.6 3.5 89 0.0 1.8 202 5.4 164
10:00 - 10:30 5.1 5.6 4.7 89 0.0 4.0 155 7.6 206
10:30 - 11:00 5.7 6.0 5.1 84 0.0 1.4 181 5.4 192
11:00 - 11:30 6.2 6.5 6.0 83 0.0 1.8 183 5.0 152
11:30 - 12:00 6.8 7.5 6.5 80 0.0 1.4 117 5.4 268
12:00 - 12:30 8.3 8.9 7.6 75 0.0 2.2 163 6.5 347
12:30 - 13:00 9.0 9.3 8.8 73 0.0 2.5 137 6.5 246
13:00 - 13:30 10.6 12.4 9.4 70 0.0 4.0 164 14.0 410
13:30 - 14:00 12.0 12.4 11.6 66 0.0 5.4 231 15.8 380
14:00 - 14:30 11.9 12.5 11.6 67 0.0 4.7 217 11.9 313
14:30 - 15:00 12.0 12.4 11.7 66 0.0 5.0 218 11.2 235
15:00 - 15:30 11.7 12.0 11.5 65 0.0 5.4 227 10.4 161
15:30 - 16:00 11.2 11.5 10.8 68 0.0 3.6 225 10.4 88
16:00 - 16:30 9.7 10.7 8.8 74 0.0 2.5 225 6.8 11
16:30 - 17:00 8.3 8.8 7.6 81 0.0 0.4 295 1.8 0
17:00 - 17:30 6.9 7.7 6.2 86 0.0 0.7 326 2.9 0
17:30 - 18:00 6.1 7.0 5.6 88 0.0 0.4 254 2.9 0
18:00 - 18:30 5.6 6.3 5.1 91 0.0 0.4 311 2.9 0
18:30 - 19:00 6.3 6.7 5.9 89 0.0 0.0 70 1.8 0
19:00 - 19:30 7.1 8.3 6.0 88 0.0 2.2 332 8.6 0
19:30 - 20:00 7.5 7.8 7.3 85 0.0 0.0 340 2.5 0
20:00 - 20:30 7.7 7.9 7.4 86 0.0 1.1 191 4.0 0
20:30 - 21:00 7.3 7.4 7.1 89 0.0 1.4 233 4.7 0
21:00 - 21:30 7.2 7.3 7.1 89 0.0 0.0 128 0.7 0
21:30 - 22:00 7.2 7.2 7.2 90 0.0 1.1 224 2.9 0

Les dades en taronja només han passat un control de qualitat automàtic. Resta pendent la seva validació definitiva.